Time,TemperatureF,DewpointF,PressureIn,WindDirection,WindDirectionDegrees,WindSpeedMPH,WindSpeedGustMPH,Humidity,HourlyPrecipIn,Conditions,Clouds,dailyrainin,SoftwareType,DateUTC
2013-08-14 00:00:00,49.5,48.1,30.02,North,1,0.0,0.0,95,0.00,,,0.00,Wunderground v.1.15,2013-08-14 04:00:00,
2013-08-14 00:05:00,49.5,48.1,30.02,North,1,0.0,0.0,95,0.00,,,0.00,Wunderground v.1.15,2013-08-14 04:05:00,
2013-08-14 00:10:00,49.4,48.0,30.02,North,1,0.0,0.0,95,0.00,,,0.00,Wunderground v.1.15,2013-08-14 04:10:00,
2013-08-14 00:15:00,49.3,48.2,30.03,North,1,0.0,0.0,96,0.00,,,0.00,Wunderground v.1.15,2013-08-14 04:15:00,
2013-08-14 00:20:00,49.2,48.1,30.02,North,1,0.0,0.0,96,0.00,,,0.00,Wunderground v.1.15,2013-08-14 04:20:00,
2013-08-14 00:25:00,49.2,48.1,30.03,North,1,0.0,0.0,96,0.00,,,0.00,Wunderground v.1.15,2013-08-14 04:25:00,
2013-08-14 00:30:00,49.3,48.2,30.03,North,1,0.0,0.0,96,0.00,,,0.00,Wunderground v.1.15,2013-08-14 04:30:00,
2013-08-14 02:40:00,49.3,48.8,30.03,North,360,0.0,0.0,98,0.00,,,0.00,Wunderground v.1.15,2013-08-14 06:40:00,
2013-08-14 02:45:00,49.7,49.2,30.03,North,1,0.0,0.0,98,0.00,,,0.00,Wunderground v.1.15,2013-08-14 06:45:00,
2013-08-14 02:50:00,49.9,49.4,30.03,North,1,0.0,0.0,98,0.00,,,0.00,Wunderground v.1.15,2013-08-14 06:50:00,
2013-08-14 02:55:00,50.3,49.8,30.03,North,1,0.0,0.0,98,0.00,,,0.00,Wunderground v.1.15,2013-08-14 06:55:00,
2013-08-14 03:00:00,50.4,49.9,30.03,North,1,0.0,0.0,98,0.00,,,0.00,Wunderground v.1.15,2013-08-14 07:00:00,
2013-08-14 03:10:00,50.2,49.7,30.03,North,1,0.0,0.0,98,0.00,,,0.00,Wunderground v.1.15,2013-08-14 07:10:00,
2013-08-14 03:15:00,50.1,49.6,30.03,North,1,0.0,0.0,98,0.00,,,0.00,Wunderground v.1.15,2013-08-14 07:15:00,
2013-08-14 03:25:00,49.9,49.4,30.03,North,360,0.0,0.0,98,0.00,,,0.00,Wunderground v.1.15,2013-08-14 07:25:00,
2013-08-14 03:30:00,50.0,49.5,30.03,North,1,0.0,0.0,98,0.00,,,0.00,Wunderground v.1.15,2013-08-14 07:30:00,
2013-08-14 03:35:00,50.1,49.6,30.03,North,1,0.0,0.0,98,0.00,,,0.00,Wunderground v.1.15,2013-08-14 07:35:00,
2013-08-14 03:40:00,49.9,49.4,30.03,North,1,0.0,0.0,98,0.00,,,0.00,Wunderground v.1.15,2013-08-14 07:40:00,
2013-08-14 03:45:00,49.7,49.2,30.03,North,1,0.0,0.0,98,0.00,,,0.00,Wunderground v.1.15,2013-08-14 07:45:00,
2013-08-14 03:55:00,49.3,48.8,30.03,North,1,0.0,0.0,98,0.00,,,0.00,Wunderground v.1.15,2013-08-14 07:55:00,
2013-08-14 04:00:00,49.0,48.5,30.04,North,1,0.0,0.0,98,0.00,,,0.00,Wunderground v.1.15,2013-08-14 08:00:00,
2013-08-14 04:10:00,48.7,48.2,30.04,North,360,0.0,0.0,98,0.00,,,0.00,Wunderground v.1.15,2013-08-14 08:10:00,
2013-08-14 04:20:00,48.3,47.8,30.04,North,360,0.0,0.0,98,0.00,,,0.00,Wunderground v.1.15,2013-08-14 08:20:00,
2013-08-14 04:25:00,48.1,47.6,30.04,North,1,0.0,0.0,98,0.00,,,0.00,Wunderground v.1.15,2013-08-14 08:25:00,
2013-08-14 04:30:00,47.9,47.4,30.04,North,1,0.0,0.0,98,0.00,,,0.00,Wunderground v.1.15,2013-08-14 08:30:00,
2013-08-14 04:35:00,47.7,47.2,30.04,North,360,0.0,0.0,98,0.00,,,0.00,Wunderground v.1.15,2013-08-14 08:35:00,
2013-08-14 04:40:00,47.4,46.9,30.05,North,360,0.0,0.0,98,0.00,,,0.00,Wunderground v.1.15,2013-08-14 08:40:00,
2013-08-14 04:45:00,47.3,46.8,30.05,North,1,0.0,0.0,98,0.00,,,0.00,Wunderground v.1.15,2013-08-14 08:45:00,
2013-08-14 04:50:00,47.1,46.6,30.05,North,1,0.0,0.0,98,0.00,,,0.00,Wunderground v.1.15,2013-08-14 08:50:00,
2013-08-14 07:00:00,46.0,45.5,30.08,North,1,0.0,0.0,98,0.00,,,0.00,Wunderground v.1.15,2013-08-14 11:00:00,
2013-08-14 07:10:00,46.2,45.7,30.08,North,360,0.0,0.0,98,0.00,,,0.00,Wunderground v.1.15,2013-08-14 11:10:00,
2013-08-14 07:20:00,46.4,45.9,30.09,North,1,0.0,0.0,98,0.00,,,0.00,Wunderground v.1.15,2013-08-14 11:20:00,
2013-08-14 07:25:00,46.5,46.0,30.09,North,1,0.0,0.0,98,0.00,,,0.00,Wunderground v.1.15,2013-08-14 11:25:00,
2013-08-14 07:35:00,47.2,46.9,30.09,North,1,0.0,0.0,99,0.00,,,0.00,Wunderground v.1.15,2013-08-14 11:35:00,
2013-08-14 07:40:00,47.8,47.5,30.09,North,1,0.0,0.0,99,0.00,,,0.00,Wunderground v.1.15,2013-08-14 11:40:00,
2013-08-14 07:45:00,48.3,48.0,30.09,North,1,0.0,0.0,99,0.00,,,0.00,Wunderground v.1.15,2013-08-14 11:45:00,
2013-08-14 07:50:00,48.8,48.5,30.09,ENE,77,0.0,0.0,99,0.00,,,0.00,Wunderground v.1.15,2013-08-14 11:50:00,
2013-08-14 07:55:00,50.0,49.7,30.09,SE,132,0.0,0.0,99,0.00,,,0.00,Wunderground v.1.15,2013-08-14 11:55:00,
2013-08-14 08:00:00,51.2,50.9,30.09,South,191,0.0,0.0,99,0.00,,,0.00,Wunderground v.1.15,2013-08-14 12:00:00,
2013-08-14 08:10:00,52.8,52.5,30.10,SW,232,1.0,1.0,99,0.00,,,0.00,Wunderground v.1.15,2013-08-14 12:10:00,
2013-08-14 08:20:00,53.2,52.9,30.10,SSW,204,1.0,1.0,99,0.00,,,0.00,Wunderground v.1.15,2013-08-14 12:20:00,
2013-08-14 08:30:00,53.6,53.3,30.10,SSW,200,1.0,1.0,99,0.00,,,0.00,Wunderground v.1.15,2013-08-14 12:30:00,
2013-08-14 08:35:00,54.0,53.7,30.10,SSW,198,1.0,1.0,99,0.00,,,0.00,Wunderground v.1.15,2013-08-14 12:35:00,
2013-08-14 08:40:00,54.2,53.6,30.10,SW,221,0.0,1.0,98,0.00,,,0.00,Wunderground v.1.15,2013-08-14 12:40:00,
2013-08-14 08:45:00,54.6,53.8,30.11,SW,228,1.0,1.0,97,0.00,,,0.00,Wunderground v.1.15,2013-08-14 12:45:00,
2013-08-14 08:50:00,54.9,53.8,30.11,SSW,205,1.0,1.0,96,0.00,,,0.00,Wunderground v.1.15,2013-08-14 12:50:00,
2013-08-14 08:55:00,55.4,54.3,30.11,NW,312,1.0,2.0,96,0.00,,,0.00,Wunderground v.1.15,2013-08-14 12:55:00,
2013-08-14 09:00:00,55.5,53.8,30.11,WNW,290,1.0,1.0,94,0.00,,,0.00,Wunderground v.1.15,2013-08-14 13:00:00,
2013-08-14 09:10:00,56.1,53.8,30.11,North,358,0.0,0.0,92,0.00,,,0.00,Wunderground v.1.15,2013-08-14 13:10:00,
2013-08-14 09:20:00,57.0,54.4,30.11,ENE,78,1.0,2.0,91,0.00,,,0.00,Wunderground v.1.15,2013-08-14 13:20:00,
2013-08-14 09:25:00,57.3,54.1,30.11,WNW,286,1.0,2.0,89,0.00,,,0.00,Wunderground v.1.15,2013-08-14 13:25:00,
2013-08-14 09:30:00,57.6,54.1,30.12,SSW,204,2.0,2.0,88,0.00,,,0.00,Wunderground v.1.15,2013-08-14 13:30:00,
2013-08-14 09:40:00,58.0,53.8,30.12,NW,311,2.0,3.0,86,0.00,,,0.00,Wunderground v.1.15,2013-08-14 13:40:00,
2013-08-14 09:45:00,58.4,54.5,30.12,SSE,160,1.0,3.0,87,0.00,,,0.00,Wunderground v.1.15,2013-08-14 13:45:00,
2013-08-14 09:50:00,58.9,54.4,30.12,North,2,1.0,2.0,85,0.00,,,0.00,Wunderground v.1.15,2013-08-14 13:50:00,
2013-08-14 09:55:00,59.3,54.8,30.12,SW,217,1.0,2.0,85,0.00,,,0.00,Wunderground v.1.15,2013-08-14 13:55:00,
2013-08-14 10:00:00,59.7,54.9,30.12,SW,235,1.0,2.0,84,0.00,,,0.00,Wunderground v.1.15,2013-08-14 14:00:00,
2013-08-14 10:10:00,60.1,54.6,30.13,NW,322,2.0,2.0,82,0.00,,,0.00,Wunderground v.1.15,2013-08-14 14:10:00,
2013-08-14 10:15:00,60.4,55.5,30.13,NW,311,1.0,5.0,84,0.00,,,0.00,Wunderground v.1.15,2013-08-14 14:15:00,
2013-08-14 10:20:00,60.8,55.3,30.13,West,271,1.0,1.0,82,0.00,,,0.00,Wunderground v.1.15,2013-08-14 14:20:00,
2013-08-14 10:25:00,61.1,55.2,30.13,NW,322,2.0,2.0,81,0.00,,,0.00,Wunderground v.1.15,2013-08-14 14:25:00,
2013-08-14 10:30:00,61.1,55.6,30.13,NW,320,1.0,4.0,82,0.00,,,0.00,Wunderground v.1.15,2013-08-14 14:30:00,
2013-08-14 10:35:00,61.1,55.2,30.13,WSW,239,1.0,4.0,81,0.00,,,0.00,Wunderground v.1.15,2013-08-14 14:35:00,
2013-08-14 10:40:00,61.1,54.9,30.13,East,99,2.0,2.0,80,0.00,,,0.00,Wunderground v.1.15,2013-08-14 14:40:00,
2013-08-14 10:50:00,62.1,55.9,30.13,NNE,22,2.0,2.0,80,0.00,,,0.00,Wunderground v.1.15,2013-08-14 14:50:00,
2013-08-14 10:55:00,62.9,56.6,30.13,WSW,248,2.0,3.0,80,0.00,,,0.00,Wunderground v.1.15,2013-08-14 14:55:00,
2013-08-14 11:00:00,62.9,55.9,30.13,North,351,1.0,1.0,78,0.00,,,0.00,Wunderground v.1.15,2013-08-14 15:00:00,
2013-08-14 11:10:00,62.7,55.7,30.14,WSW,238,1.0,2.0,78,0.00,,,0.00,Wunderground v.1.15,2013-08-14 15:10:00,
2013-08-14 11:15:00,62.7,55.7,30.14,WNW,283,1.0,2.0,78,0.00,,,0.00,Wunderground v.1.15,2013-08-14 15:15:00,
2013-08-14 11:20:00,62.7,55.0,30.14,NW,315,1.0,1.0,76,0.00,,,0.00,Wunderground v.1.15,2013-08-14 15:20:00,
2013-08-14 11:25:00,62.8,55.5,30.14,NW,304,1.0,1.0,77,0.00,,,0.00,Wunderground v.1.15,2013-08-14 15:25:00,
2013-08-14 11:30:00,63.0,56.0,30.14,WNW,287,1.0,1.0,78,0.00,,,0.00,Wunderground v.1.15,2013-08-14 15:30:00,
2013-08-14 11:35:00,63.1,55.8,30.14,SW,228,1.0,1.0,77,0.00,,,0.00,Wunderground v.1.15,2013-08-14 15:35:00,
2013-08-14 11:45:00,62.6,55.3,30.14,North,10,1.0,2.0,77,0.00,,,0.00,Wunderground v.1.15,2013-08-14 15:45:00,
2013-08-14 11:50:00,62.3,56.0,30.15,SSW,197,1.0,1.0,80,0.00,,,0.00,Wunderground v.1.15,2013-08-14 15:50:00,
2013-08-14 11:55:00,62.3,56.0,30.14,SSW,207,1.0,1.0,80,0.00,,,0.00,Wunderground v.1.15,2013-08-14 15:55:00,
2013-08-14 12:00:00,62.5,55.5,30.14,SW,230,2.0,2.0,78,0.00,,,0.00,Wunderground v.1.15,2013-08-14 16:00:00,
2013-08-14 12:10:00,63.2,56.9,30.14,NNE,15,2.0,3.0,80,0.00,,,0.00,Wunderground v.1.15,2013-08-14 16:10:00,
2013-08-14 12:15:00,64.0,56.6,30.14,NNE,31,2.0,6.0,77,0.00,,,0.00,Wunderground v.1.15,2013-08-14 16:15:00,
2013-08-14 12:25:00,64.9,56.8,30.14,SW,217,3.0,3.0,75,0.00,,,0.00,Wunderground v.1.15,2013-08-14 16:25:00,
2013-08-14 12:35:00,65.4,56.1,30.14,West,281,2.0,2.0,72,0.00,,,0.00,Wunderground v.1.15,2013-08-14 16:35:00,
2013-08-14 13:45:00,60.8,57.5,30.15,ENE,66,1.0,3.0,89,0.00,,,0.01,Wunderground v.1.15,2013-08-14 17:45:00,
2013-08-14 13:50:00,61.3,57.1,30.15,SW,217,1.0,3.0,86,0.00,,,0.01,Wunderground v.1.15,2013-08-14 17:50:00,
2013-08-14 13:55:00,62.0,58.4,30.15,West,280,1.0,1.0,88,0.00,,,0.01,Wunderground v.1.15,2013-08-14 17:55:00,
2013-08-14 14:00:00,63.1,58.8,30.15,North,5,0.0,1.0,86,0.00,,,0.01,Wunderground v.1.15,2013-08-14 18:00:00,
2013-08-14 14:05:00,63.7,57.8,30.14,NNE,22,1.0,4.0,81,0.00,,,0.01,Wunderground v.1.15,2013-08-14 18:05:00,
2013-08-14 14:30:00,66.6,58.8,30.14,NNE,22,1.0,4.0,76,0.00,,,0.01,Wunderground v.1.15,2013-08-14 18:30:00,
2013-08-14 14:35:00,66.6,57.7,30.14,NE,51,2.0,10.0,73,0.00,,,0.01,Wunderground v.1.15,2013-08-14 18:35:00,
2013-08-14 14:40:00,66.2,57.3,30.14,NNW,340,4.0,4.0,73,0.00,,,0.01,Wunderground v.1.15,2013-08-14 18:40:00,
2013-08-14 14:45:00,66.0,57.5,30.14,NE,43,3.0,4.0,74,0.00,,,0.01,Wunderground v.1.15,2013-08-14 18:45:00,
2013-08-14 14:55:00,65.3,56.0,30.14,NW,323,3.0,4.0,72,0.00,,,0.01,Wunderground v.1.15,2013-08-14 18:55:00,
2013-08-14 15:00:00,65.1,56.2,30.14,NNW,329,2.0,2.0,73,0.00,,,0.01,Wunderground v.1.15,2013-08-14 19:00:00,
2013-08-14 15:15:00,66.2,57.3,30.14,NE,43,3.0,4.0,73,0.00,,,0.01,Wunderground v.1.15,2013-08-14 19:15:00,
2013-08-14 15:20:00,67.0,58.4,30.14,NNE,12,3.0,3.0,74,0.00,,,0.01,Wunderground v.1.15,2013-08-14 19:20:00,
2013-08-14 15:25:00,67.3,58.0,30.13,ENE,58,3.0,3.0,72,0.00,,,0.01,Wunderground v.1.15,2013-08-14 19:25:00,
2013-08-14 15:35:00,66.5,57.2,30.13,North,2,2.0,3.0,72,0.00,,,0.01,Wunderground v.1.15,2013-08-14 19:35:00,
2013-08-14 15:45:00,66.4,58.6,30.13,NNE,27,2.0,6.0,76,0.00,,,0.01,Wunderground v.1.15,2013-08-14 19:45:00,
2013-08-14 15:55:00,68.3,58.1,30.13,NE,47,2.0,2.0,70,0.00,,,0.01,Wunderground v.1.15,2013-08-14 19:55:00,
2013-08-14 19:10:00,69.8,55.3,30.13,NW,307,1.0,1.0,60,0.00,,,0.01,Wunderground v.1.15,2013-08-14 23:10:00,
2013-08-14 19:20:00,70.3,56.2,30.13,SW,232,0.0,1.0,61,0.00,,,0.01,Wunderground v.1.15,2013-08-14 23:20:00,
2013-08-14 19:25:00,70.6,57.8,30.13,WSW,248,0.0,1.0,64,0.00,,,0.01,Wunderground v.1.15,2013-08-14 23:25:00,
2013-08-14 19:30:00,70.9,58.1,30.13,WSW,249,0.0,0.0,64,0.00,,,0.01,Wunderground v.1.15,2013-08-14 23:30:00,
2013-08-14 19:40:00,68.8,57.4,30.14,WSW,249,0.0,0.0,67,0.00,,,0.01,Wunderground v.1.15,2013-08-14 23:40:00,
2013-08-14 19:45:00,66.9,56.8,30.14,WSW,249,0.0,0.0,70,0.00,,,0.01,Wunderground v.1.15,2013-08-14 23:45:00,
2013-08-14 19:50:00,65.0,56.1,30.14,WSW,249,0.0,0.0,73,0.00,,,0.01,Wunderground v.1.15,2013-08-14 23:50:00,
2013-08-14 19:55:00,63.2,55.9,30.14,WSW,249,0.0,0.0,77,0.00,,,0.01,Wunderground v.1.15,2013-08-14 23:55:00,
2013-08-14 20:00:00,61.6,55.4,30.14,WSW,248,0.0,0.0,80,0.00,,,0.01,Wunderground v.1.15,2013-08-15 00:00:00,
2013-08-14 20:10:00,59.2,54.4,30.14,WSW,249,0.0,0.0,84,0.00,,,0.01,Wunderground v.1.15,2013-08-15 00:10:00,
2013-08-14 20:15:00,58.3,54.1,30.14,WSW,249,0.0,0.0,86,0.00,,,0.01,Wunderground v.1.15,2013-08-15 00:15:00,
2013-08-14 20:20:00,57.5,53.7,30.14,WSW,248,0.0,0.0,87,0.00,,,0.01,Wunderground v.1.15,2013-08-15 00:20:00,
2013-08-14 20:25:00,56.8,53.6,30.14,WSW,248,0.0,0.0,89,0.00,,,0.01,Wunderground v.1.15,2013-08-15 00:25:00,
2013-08-14 20:30:00,56.2,53.3,30.15,WSW,249,0.0,0.0,90,0.00,,,0.01,Wunderground v.1.15,2013-08-15 00:30:00,
2013-08-14 20:35:00,55.6,52.7,30.15,WSW,248,0.0,0.0,90,0.00,,,0.01,Wunderground v.1.15,2013-08-15 00:35:00,
2013-08-14 20:40:00,55.0,52.1,30.15,WSW,248,0.0,0.0,90,0.00,,,0.01,Wunderground v.1.15,2013-08-15 00:40:00,
2013-08-14 20:45:00,54.5,51.9,30.15,WSW,248,0.0,0.0,91,0.00,,,0.01,Wunderground v.1.15,2013-08-15 00:45:00,
2013-08-14 20:55:00,53.7,51.4,30.15,WSW,248,0.0,0.0,92,0.00,,,0.01,Wunderground v.1.15,2013-08-15 00:55:00,
2013-08-14 21:00:00,53.3,51.0,30.15,WSW,248,0.0,0.0,92,0.00,,,0.01,Wunderground v.1.15,2013-08-15 01:00:00,
2013-08-14 21:10:00,52.6,50.6,30.15,WSW,248,0.0,0.0,93,0.00,,,0.01,Wunderground v.1.15,2013-08-15 01:10:00,
2013-08-14 21:15:00,52.3,50.3,30.15,WSW,248,0.0,0.0,93,0.00,,,0.01,Wunderground v.1.15,2013-08-15 01:15:00,
2013-08-14 21:20:00,52.1,50.1,30.15,WSW,248,0.0,0.0,93,0.00,,,0.01,Wunderground v.1.15,2013-08-15 01:20:00,
2013-08-14 21:30:00,51.6,49.9,30.16,WSW,248,0.0,0.0,94,0.00,,,0.01,Wunderground v.1.15,2013-08-15 01:30:00,
2013-08-14 21:40:00,51.2,49.5,30.16,WSW,248,0.0,0.0,94,0.00,,,0.01,Wunderground v.1.15,2013-08-15 01:40:00,
2013-08-14 21:45:00,51.0,49.3,30.16,WSW,248,0.0,0.0,94,0.00,,,0.01,Wunderground v.1.15,2013-08-15 01:45:00,
2013-08-14 21:50:00,50.8,49.1,30.17,WSW,248,0.0,0.0,94,0.00,,,0.01,Wunderground v.1.15,2013-08-15 01:50:00,
2013-08-14 21:55:00,50.6,49.2,30.17,WSW,248,0.0,0.0,95,0.00,,,0.01,Wunderground v.1.15,2013-08-15 01:55:00,
2013-08-14 22:05:00,50.4,49.0,30.17,WSW,248,0.0,0.0,95,0.00,,,0.01,Wunderground v.1.15,2013-08-15 02:05:00,
2013-08-14 22:10:00,50.3,48.9,30.17,WSW,248,0.0,0.0,95,0.00,,,0.01,Wunderground v.1.15,2013-08-15 02:10:00,
2013-08-14 22:15:00,50.3,48.9,30.17,WSW,248,0.0,0.0,95,0.00,,,0.01,Wunderground v.1.15,2013-08-15 02:15:00,
2013-08-14 22:20:00,50.2,49.1,30.17,WSW,248,0.0,0.0,96,0.00,,,0.01,Wunderground v.1.15,2013-08-15 02:20:00,
2013-08-14 22:25:00,50.0,48.9,30.17,WSW,248,0.0,0.0,96,0.00,,,0.01,Wunderground v.1.15,2013-08-15 02:25:00,
2013-08-14 22:35:00,49.7,48.6,30.17,WSW,248,0.0,0.0,96,0.00,,,0.01,Wunderground v.1.15,2013-08-15 02:35:00,
2013-08-14 22:40:00,49.5,48.4,30.17,WSW,248,0.0,0.0,96,0.00,,,0.01,Wunderground v.1.15,2013-08-15 02:40:00,
2013-08-14 22:45:00,49.3,48.2,30.17,WSW,248,0.0,0.0,96,0.00,,,0.01,Wunderground v.1.15,2013-08-15 02:45:00,
2013-08-14 22:50:00,49.3,48.2,30.17,WSW,248,0.0,0.0,96,0.00,,,0.01,Wunderground v.1.15,2013-08-15 02:50:00,
2013-08-14 22:55:00,49.2,48.1,30.17,WSW,248,0.0,0.0,96,0.00,,,0.01,Wunderground v.1.15,2013-08-15 02:55:00,
2013-08-14 23:00:00,49.1,48.0,30.17,WSW,248,0.0,0.0,96,0.00,,,0.01,Wunderground v.1.15,2013-08-15 03:00:00,
2013-08-14 23:10:00,49.0,47.9,30.18,WSW,248,0.0,0.0,96,0.00,,,0.01,Wunderground v.1.15,2013-08-15 03:10:00,
2013-08-14 23:15:00,48.7,47.6,30.18,WSW,248,0.0,0.0,96,0.00,,,0.01,Wunderground v.1.15,2013-08-15 03:15:00,
2013-08-14 23:20:00,48.5,47.4,30.18,WSW,248,0.0,0.0,96,0.00,,,0.01,Wunderground v.1.15,2013-08-15 03:20:00,
2013-08-14 23:25:00,48.5,47.4,30.18,WSW,248,0.0,0.0,96,0.00,,,0.01,Wunderground v.1.15,2013-08-15 03:25:00,
2013-08-14 23:30:00,48.5,47.7,30.18,WSW,248,0.0,0.0,97,0.00,,,0.01,Wunderground v.1.15,2013-08-15 03:30:00,
2013-08-14 23:35:00,48.5,47.7,30.18,WSW,248,0.0,0.0,97,0.00,,,0.01,Wunderground v.1.15,2013-08-15 03:35:00,
2013-08-14 23:45:00,48.4,47.6,30.18,WSW,248,0.0,0.0,97,0.00,,,0.01,Wunderground v.1.15,2013-08-15 03:45:00,
2013-08-14 23:50:00,48.6,47.8,30.18,WSW,248,0.0,0.0,97,0.00,,,0.01,Wunderground v.1.15,2013-08-15 03:50:00,
2013-08-14 23:55:00,48.5,47.7,30.18,WSW,248,0.0,0.0,97,0.00,,,0.01,Wunderground v.1.15,2013-08-15 03:55:00,